Terminal Aerodrome Forecast
Issued by NWS

Home | Current Version | Previous Version | Graphics & Text | Print | Product List | Glossary On
Versions: 1 2 3 4 5 6 7 8 9 10 11 12 13 14
000
FTUS43 KFGF 131700
TAFBJI
TAF
KBJI 131732Z 1318/1418 16012G17KT P6SM BKN120
     FM140200 19007KT P6SM VCSH BKN060
     FM140600 26007KT P6SM BKN080
     FM141400 27012KT P6SM BKN100=

USA.gov is the U.S. government's official web portal to all federal, state and local government web resources and services.